createdAt,value
2022-08-27T00:02:01.418Z,101351.38
2022-08-27T00:04:28.502Z,101346.47
2022-08-27T00:06:55.339Z,101353.84
2022-08-27T00:09:27.122Z,101354.81
2022-08-27T00:11:54.981Z,101351.13
2022-08-27T00:14:22.326Z,101365.78
2022-08-27T00:16:49.217Z,101349.59
2022-08-27T00:19:16.301Z,101349.38
2022-08-27T00:21:43.545Z,101356.28
2022-08-27T00:24:12.238Z,101354.09
2022-08-27T00:26:43.203Z,101350.56
2022-08-27T00:29:10.424Z,101359.03
2022-08-27T00:31:37.691Z,101355.97
2022-08-27T00:34:05.272Z,101354.34
2022-08-27T00:36:34.464Z,101361.03
2022-08-27T00:39:01.195Z,101354.75
2022-08-27T00:41:27.952Z,101344.44
2022-08-27T00:44:00.015Z,101362.59
2022-08-27T00:46:45.439Z,101358.63
2022-08-27T00:49:26.975Z,101359.75
2022-08-27T00:52:16.952Z,101351.31
2022-08-27T00:54:43.747Z,101349.44
2022-08-27T00:57:10.626Z,101355.63
2022-08-27T00:59:37.544Z,101352.75
2022-08-27T01:02:19.375Z,101351.63
2022-08-27T01:04:55.706Z,101349.81
2022-08-27T01:07:23.303Z,101351.66
2022-08-27T01:09:52.023Z,101347.53
2022-08-27T01:12:19.926Z,101344.59
2022-08-27T01:14:47.419Z,101343.47
2022-08-27T01:17:15.081Z,101357.88
2022-08-27T01:19:52.061Z,101350.84
2022-08-27T01:22:30.421Z,101354.88
2022-08-27T01:25:01.464Z,101347.94
2022-08-27T01:27:31.440Z,101341.91
2022-08-27T01:29:58.575Z,101337.31
2022-08-27T01:32:28.483Z,101331.78
2022-08-27T01:34:57.209Z,101348.97
2022-08-27T01:37:25.540Z,101341.88
2022-08-27T01:39:55.443Z,101342.22
2022-08-27T01:42:29.284Z,101343.47
2022-08-27T01:44:59.710Z,101339.09
2022-08-27T01:47:31.165Z,101338.72
2022-08-27T01:49:59.166Z,101342.44
2022-08-27T01:52:27.605Z,101339.88
2022-08-27T01:54:57.936Z,101338.66
2022-08-27T01:57:26.275Z,101338.66
2022-08-27T01:59:54.853Z,101338.75
2022-08-27T02:02:22.653Z,101329.91
2022-08-27T02:04:50.984Z,101344.84
2022-08-27T02:07:17.955Z,101326.78
2022-08-27T02:09:45.837Z,101334.63
2022-08-27T02:12:12.654Z,101334.75
2022-08-27T02:14:39.421Z,101327.59
2022-08-27T02:17:06.733Z,101328.63
2022-08-27T02:19:33.549Z,101323.44
2022-08-27T02:22:00.726Z,101326.22
2022-08-27T02:24:28.484Z,101321.94
2022-08-27T02:26:55.806Z,101331.88
2022-08-27T02:29:23.725Z,101323.47
2022-08-27T02:31:50.777Z,101326.84
2022-08-27T02:34:18.070Z,101317.78
2022-08-27T02:36:45.010Z,101317.16
2022-08-27T02:39:12.054Z,101314.94
2022-08-27T02:41:38.717Z,101317.38
2022-08-27T02:44:10.594Z,101312.50
2022-08-27T02:46:41.806Z,101316.34
2022-08-27T02:49:09.557Z,101314.97
2022-08-27T02:51:37.168Z,101320.13
2022-08-27T02:54:03.985Z,101315.69
2022-08-27T02:56:30.739Z,101305.78
2022-08-27T02:58:59.143Z,101305.41
2022-08-27T03:01:26.079Z,101305.88
2022-08-27T03:03:52.788Z,101315.06
2022-08-27T03:06:19.502Z,101317.38
2022-08-27T03:08:52.210Z,101319.31
2022-08-27T03:11:20.188Z,101317.31
2022-08-27T03:13:46.892Z,101303.72
2022-08-27T03:16:13.661Z,101308.47
2022-08-27T03:18:40.667Z,101318.16
2022-08-27T03:21:08.269Z,101325.34
2022-08-27T03:23:35.505Z,101325.06
2022-08-27T03:26:05.141Z,101329.50
2022-08-27T03:28:36.176Z,101324.19
2022-08-27T03:31:06.436Z,101326.75
2022-08-27T03:33:36.017Z,101320.88
2022-08-27T03:36:03.240Z,101314.44
2022-08-27T03:38:30.003Z,101328.38
2022-08-27T03:40:56.778Z,101323.22
2022-08-27T03:43:23.643Z,101333.63
2022-08-27T03:46:01.662Z,101317.28
2022-08-27T03:48:30.493Z,101322.22
2022-08-27T03:50:57.504Z,101326.59
2022-08-27T03:53:24.837Z,101322.59
2022-08-27T03:55:51.530Z,101328.56
2022-08-27T03:58:18.310Z,101324.03
2022-08-27T04:00:45.148Z,101323.38
2022-08-27T04:03:13.597Z,101317.88
2022-08-27T04:05:41.022Z,101322.66
2022-08-27T04:08:12.351Z,101326.94
2022-08-27T04:10:43.058Z,101319.44
2022-08-27T04:13:09.831Z,101317.75
2022-08-27T04:15:40.728Z,101320.47
2022-08-27T04:18:10.156Z,101312.34
2022-08-27T04:20:37.119Z,101315.09
2022-08-27T04:23:04.788Z,101316.31
2022-08-27T04:25:32.079Z,101315.63
2022-08-27T04:27:58.958Z,101314.22
2022-08-27T04:30:26.864Z,101316.06
2022-08-27T04:32:53.563Z,101315.22
2022-08-27T04:35:20.339Z,101312.97
2022-08-27T04:37:47.233Z,101311.09
2022-08-27T04:40:13.948Z,101320.09
2022-08-27T04:42:40.813Z,101318.03
2022-08-27T04:45:08.126Z,101318.88
2022-08-27T04:47:35.375Z,101325.00
2022-08-27T04:50:05.204Z,101320.69
2022-08-27T04:52:32.718Z,101328.13
2022-08-27T04:54:59.996Z,101317.66
2022-08-27T04:57:26.617Z,101311.38
2022-08-27T04:59:53.546Z,101321.03
2022-08-27T05:02:20.266Z,101326.66
2022-08-27T05:04:47.041Z,101314.81
2022-08-27T05:07:13.823Z,101327.94
2022-08-27T05:09:41.640Z,101325.47
2022-08-27T05:12:08.657Z,101338.59
2022-08-27T05:14:35.344Z,101335.16
2022-08-27T05:17:03.473Z,101335.69
2022-08-27T05:19:30.182Z,101334.00
2022-08-27T05:21:57.192Z,101337.63
2022-08-27T05:24:24.041Z,101336.75
2022-08-27T05:26:51.584Z,101334.00
2022-08-27T05:29:18.378Z,101329.81
2022-08-27T05:31:47.012Z,101330.19
2022-08-27T05:34:16.455Z,101333.72
2022-08-27T05:36:49.317Z,101339.13
2022-08-27T05:39:16.886Z,101342.78
2022-08-27T05:41:43.636Z,101353.66
2022-08-27T05:46:57.162Z,101351.50
2022-08-27T05:49:24.021Z,101351.53
2022-08-27T05:51:50.881Z,101351.88
2022-08-27T05:54:20.908Z,101356.88
2022-08-27T05:56:51.550Z,101335.78
2022-08-27T05:59:36.851Z,101343.59
2022-08-27T06:02:04.005Z,101348.53
2022-08-27T06:04:30.768Z,101360.38
2022-08-27T06:06:58.001Z,101362.13
2022-08-27T06:09:28.816Z,101351.66
2022-08-27T06:11:57.213Z,101355.13
2022-08-27T06:14:24.163Z,101348.22
2022-08-27T06:16:51.053Z,101340.53
2022-08-27T06:19:18.136Z,101353.78
2022-08-27T06:21:44.954Z,101343.56
2022-08-27T06:24:12.981Z,101352.63
2022-08-27T06:26:42.344Z,101359.09
2022-08-27T06:29:10.148Z,101356.88
2022-08-27T06:31:38.837Z,101352.38
2022-08-27T06:34:08.627Z,101349.81
2022-08-27T06:36:41.090Z,101346.94
2022-08-27T06:39:08.856Z,101347.19
2022-08-27T06:41:38.773Z,101353.25
2022-08-27T06:44:11.576Z,101347.41
2022-08-27T06:46:38.929Z,101348.28
2022-08-27T06:49:06.457Z,101354.91
2022-08-27T06:51:35.416Z,101345.59
2022-08-27T06:54:05.652Z,101353.75
2022-08-27T06:56:33.297Z,101354.06
2022-08-27T06:59:02.095Z,101347.31
2022-08-27T07:01:36.178Z,101346.00
2022-08-27T07:04:06.714Z,101346.00
2022-08-27T07:06:35.057Z,101347.81
2022-08-27T07:09:07.796Z,101346.22
2022-08-27T07:11:34.792Z,101343.25
2022-08-27T07:14:03.810Z,101342.63
2022-08-27T07:16:30.894Z,101349.34
2022-08-27T07:19:04.441Z,101356.72
2022-08-27T07:21:40.202Z,101354.34
2022-08-27T07:24:17.008Z,101349.25
2022-08-27T07:26:48.522Z,101352.91
2022-08-27T07:29:15.807Z,101362.91
2022-08-27T07:31:50.819Z,101349.31
2022-08-27T07:34:24.795Z,101346.72
2022-08-27T07:36:52.145Z,101367.63
2022-08-27T07:39:19.048Z,101358.63
2022-08-27T07:42:04.731Z,101354.72
2022-08-27T07:44:34.418Z,101355.19
2022-08-27T07:47:02.147Z,101368.91
2022-08-27T07:49:33.433Z,101359.88
2022-08-27T07:52:00.321Z,101353.81
2022-08-27T07:54:27.574Z,101371.84
2022-08-27T07:56:56.109Z,101365.28
2022-08-27T07:59:26.124Z,101351.13
2022-08-27T08:01:54.720Z,101379.88
2022-08-27T08:04:22.713Z,101382.88
2022-08-27T08:06:50.065Z,101380.56
2022-08-27T08:09:16.964Z,101382.00
2022-08-27T08:11:43.756Z,101377.47
2022-08-27T08:14:10.922Z,101377.41
2022-08-27T08:16:37.673Z,101384.47
2022-08-27T08:19:04.411Z,101381.44
2022-08-27T08:21:31.148Z,101388.22
2022-08-27T08:23:58.212Z,101389.78
2022-08-27T08:26:24.955Z,101392.84
2022-08-27T08:28:52.743Z,101389.75
2022-08-27T08:31:20.185Z,101394.97
2022-08-27T08:33:48.958Z,101391.81
2022-08-27T08:36:17.420Z,101396.13
2022-08-27T08:38:45.565Z,101396.50
2022-08-27T08:41:35.896Z,101390.50
2022-08-27T08:44:10.474Z,101381.38
2022-08-27T08:47:06.572Z,101388.97
2022-08-27T08:49:48.444Z,101389.03
2022-08-27T08:52:47.878Z,101392.13
2022-08-27T08:55:29.036Z,101388.63
2022-08-27T08:58:05.402Z,101392.97
2022-08-27T09:00:32.798Z,101390.59
2022-08-27T09:02:59.823Z,101386.66
2022-08-27T09:05:28.763Z,101398.13
2022-08-27T09:08:30.937Z,101393.38
2022-08-27T09:11:04.453Z,101381.06
2022-08-27T09:14:11.518Z,101387.34
2022-08-27T09:16:40.623Z,101379.09
2022-08-27T09:19:07.687Z,101389.41
2022-08-27T09:21:57.181Z,101388.63
2022-08-27T09:24:59.864Z,101379.53
2022-08-27T09:27:26.649Z,101389.81
2022-08-27T09:29:55.790Z,101369.66
2022-08-27T09:32:25.319Z,101385.38
2022-08-27T09:34:52.838Z,101389.63
2022-08-27T09:37:33.916Z,101385.81
2022-08-27T09:40:22.568Z,101389.03
2022-08-27T09:42:56.696Z,101391.72
2022-08-27T09:45:29.907Z,101383.09
2022-08-27T09:48:17.940Z,101376.75
2022-08-27T09:51:10.585Z,101379.91
2022-08-27T09:53:56.094Z,101379.09
2022-08-27T09:56:29.790Z,101388.22
2022-08-27T09:59:10.974Z,101383.06
2022-08-27T10:02:01.004Z,101390.22
2022-08-27T10:04:50.321Z,101397.34
2022-08-27T10:07:28.942Z,101385.03
2022-08-27T10:10:11.427Z,101376.72
2022-08-27T10:13:09.131Z,101380.25
2022-08-27T10:16:07.444Z,101379.84
2022-08-27T10:18:41.311Z,101370.78
2022-08-27T10:21:27.887Z,101381.84
2022-08-27T10:23:54.748Z,101381.06
2022-08-27T10:26:24.883Z,101380.25
2022-08-27T10:29:03.694Z,101369.13
2022-08-27T10:31:34.826Z,101379.44
2022-08-27T10:34:22.985Z,101383.03
2022-08-27T10:36:56.171Z,101378.88
2022-08-27T10:40:10.384Z,101369.94
2022-08-27T10:42:57.875Z,101378.69
2022-08-27T10:45:41.809Z,101365.97
2022-08-27T10:48:23.323Z,101361.88
2022-08-27T10:51:13.464Z,101359.63
2022-08-27T10:54:00.709Z,101361.97
2022-08-27T10:56:39.954Z,101345.38
2022-08-27T10:59:39.875Z,101352.13
2022-08-27T11:02:34.553Z,101361.22
2022-08-27T11:05:10.217Z,101339.91
2022-08-27T11:07:40.023Z,101352.19
2022-08-27T11:10:21.053Z,101355.41
2022-08-27T11:12:49.707Z,101351.00
2022-08-27T11:15:25.565Z,101345.09
2022-08-27T11:18:00.383Z,101354.13
2022-08-27T11:20:51.801Z,101351.31
2022-08-27T11:23:36.843Z,101356.38
2022-08-27T11:26:05.453Z,101350.88
2022-08-27T11:28:38.840Z,101352.72
2022-08-27T11:31:36.022Z,101358.59
2022-08-27T11:34:13.862Z,101352.34
2022-08-27T11:37:04.992Z,101345.66
2022-08-27T11:39:51.528Z,101334.78
2022-08-27T11:42:50.181Z,101355.81
2022-08-27T11:45:24.611Z,101346.69
2022-08-27T11:47:56.916Z,101350.97
2022-08-27T11:50:26.514Z,101346.16
2022-08-27T11:52:57.448Z,101357.31
2022-08-27T11:55:29.703Z,101357.44
2022-08-27T11:58:20.226Z,101355.91
2022-08-27T12:00:48.531Z,101352.91
2022-08-27T12:03:21.446Z,101354.09
2022-08-27T12:05:54.322Z,101348.97
2022-08-27T12:08:30.384Z,101351.72
2022-08-27T12:11:19.056Z,101353.72
2022-08-27T12:14:05.578Z,101354.78
2022-08-27T12:16:45.748Z,101344.94
2022-08-27T12:19:34.278Z,101354.38
2022-08-27T12:22:21.204Z,101348.53
2022-08-27T12:24:55.637Z,101354.50
2022-08-27T12:27:38.370Z,101360.44
2022-08-27T12:30:49.956Z,101342.69
2022-08-27T12:33:46.549Z,101354.56
2022-08-27T12:36:27.979Z,101358.91
2022-08-27T12:38:58.414Z,101350.59
2022-08-27T12:41:43.600Z,101353.81
2022-08-27T12:44:14.508Z,101357.00
2022-08-27T12:46:52.137Z,101356.09
2022-08-27T12:49:38.380Z,101346.69
2022-08-27T12:52:24.821Z,101347.78
2022-08-27T12:55:12.832Z,101345.06
2022-08-27T12:58:04.340Z,101348.25
2022-08-27T13:00:38.412Z,101331.19
2022-08-27T13:03:14.412Z,101341.16
2022-08-27T13:05:44.293Z,101332.81
2022-08-27T13:08:23.532Z,101335.94
2022-08-27T13:10:50.963Z,101334.75
2022-08-27T13:13:23.880Z,101334.81
2022-08-27T13:15:58.705Z,101339.16
2022-08-27T13:18:29.509Z,101329.69
2022-08-27T13:21:09.433Z,101327.31
2022-08-27T13:23:36.192Z,101330.47
2022-08-27T13:26:11.415Z,101336.78
2022-08-27T13:28:40.428Z,101324.53
2022-08-27T13:31:08.032Z,101322.16
2022-08-27T13:33:37.668Z,101321.72
2022-08-27T13:36:06.820Z,101329.25
2022-08-27T13:38:37.406Z,101328.06
2022-08-27T13:41:20.263Z,101323.31
2022-08-27T13:43:48.518Z,101313.84
2022-08-27T13:46:21.406Z,101321.75
2022-08-27T13:48:51.263Z,101312.66
2022-08-27T13:51:29.615Z,101321.38
2022-08-27T13:54:16.190Z,101316.97
2022-08-27T13:56:49.140Z,101327.25
2022-08-27T13:59:27.316Z,101319.38
2022-08-27T14:02:07.485Z,101317.03
2022-08-27T14:04:38.982Z,101319.75
2022-08-27T14:07:13.654Z,101315.00
2022-08-27T14:09:53.943Z,101320.59
2022-08-27T14:12:33.151Z,101315.44
2022-08-27T14:15:52.096Z,101311.84
2022-08-27T14:18:42.162Z,101313.03
2022-08-27T14:21:11.970Z,101307.94
2022-08-27T14:23:38.685Z,101311.00
2022-08-27T14:26:05.646Z,101312.63
2022-08-27T14:28:33.010Z,101306.66
2022-08-27T14:31:00.095Z,101303.91
2022-08-27T14:33:27.117Z,101307.44
2022-08-27T14:35:53.960Z,101314.63
2022-08-27T14:38:23.249Z,101303.97
2022-08-27T14:40:58.524Z,101303.94
2022-08-27T14:43:25.940Z,101317.81
2022-08-27T14:45:53.507Z,101305.91
2022-08-27T14:48:25.939Z,101308.28
2022-08-27T14:51:04.178Z,101313.78
2022-08-27T14:53:34.211Z,101314.97
2022-08-27T14:56:01.960Z,101315.75
2022-08-27T14:58:29.523Z,101308.66
2022-08-27T15:00:57.964Z,101307.47
2022-08-27T15:03:33.370Z,101315.03
2022-08-27T15:06:00.407Z,101312.66
2022-08-27T15:08:30.509Z,101310.25
2022-08-27T15:10:59.303Z,101304.75
2022-08-27T15:13:27.220Z,101309.09
2022-08-27T15:15:57.051Z,101314.63
2022-08-27T15:18:24.232Z,101307.47
2022-08-27T15:20:52.107Z,101310.66
2022-08-27T15:23:21.968Z,101306.69
2022-08-27T15:25:51.772Z,101301.56
2022-08-27T15:28:22.472Z,101303.94
2022-08-27T15:30:55.200Z,101302.00
2022-08-27T15:33:25.181Z,101315.75
2022-08-27T15:35:52.440Z,101297.22
2022-08-27T15:38:19.239Z,101309.84
2022-08-27T15:40:46.311Z,101305.09
2022-08-27T15:43:13.267Z,101307.81
2022-08-27T15:45:40.095Z,101305.94
2022-08-27T15:48:07.244Z,101311.81
2022-08-27T15:50:35.462Z,101306.63
2022-08-27T15:53:06.373Z,101307.03
2022-08-27T15:55:36.777Z,101307.81
2022-08-27T15:58:04.867Z,101307.03
2022-08-27T16:00:34.374Z,101307.81
2022-08-27T16:03:03.603Z,101312.22
2022-08-27T16:05:33.340Z,101309.84
2022-08-27T16:08:00.213Z,101304.72
2022-08-27T16:10:27.887Z,101307.13
2022-08-27T16:12:54.637Z,101304.34
2022-08-27T16:15:21.366Z,101298.81
2022-08-27T16:17:51.180Z,101298.38
2022-08-27T16:20:17.857Z,101305.50
2022-08-27T16:22:47.025Z,101302.75
2022-08-27T16:25:18.488Z,101300.34
2022-08-27T16:27:47.737Z,101293.66
2022-08-27T16:30:15.558Z,101301.56
2022-08-27T16:32:45.903Z,101296.03
2022-08-27T16:35:15.415Z,101301.16
2022-08-27T16:37:43.755Z,101300.41
2022-08-27T16:40:12.457Z,101298.84
2022-08-27T16:42:43.938Z,101293.28
2022-08-27T16:45:14.226Z,101296.41
2022-08-27T16:48:01.477Z,101296.03
2022-08-27T16:50:37.955Z,101292.84
2022-08-27T16:53:08.631Z,101292.47
2022-08-27T16:55:37.738Z,101283.75
2022-08-27T16:58:07.750Z,101278.63
2022-08-27T17:00:37.752Z,101287.34
2022-08-27T17:03:05.441Z,101287.75
2022-08-27T17:05:34.699Z,101278.63
2022-08-27T17:08:06.370Z,101281.38
2022-08-27T17:10:41.902Z,101276.25
2022-08-27T17:13:09.557Z,101285.34
2022-08-27T17:15:36.407Z,101283.38
2022-08-27T17:18:03.959Z,101276.63
2022-08-27T17:20:31.793Z,101276.66
2022-08-27T17:22:59.369Z,101283.38
2022-08-27T17:25:29.854Z,101282.97
2022-08-27T17:28:00.741Z,101284.56
2022-08-27T17:30:28.090Z,101289.69
2022-08-27T17:32:56.238Z,101289.69
2022-08-27T17:35:23.316Z,101287.72
2022-08-27T17:37:50.131Z,101287.72
2022-08-27T17:40:16.962Z,101284.56
2022-08-27T17:42:43.807Z,101294.38
2022-08-27T17:45:10.953Z,101293.25
2022-08-27T17:47:37.985Z,101290.91
2022-08-27T17:50:05.944Z,101282.19
2022-08-27T17:52:33.518Z,101290.91
2022-08-27T17:55:00.422Z,101291.69
2022-08-27T17:57:40.331Z,101290.47
2022-08-27T18:00:10.801Z,101290.88
2022-08-27T18:02:49.169Z,101295.63
2022-08-27T18:05:18.287Z,101290.81
2022-08-27T18:07:46.578Z,101286.53
2022-08-27T18:10:19.235Z,101298.81
2022-08-27T18:12:46.668Z,101305.88
2022-08-27T18:15:27.842Z,101305.88
2022-08-27T18:17:56.599Z,101303.53
2022-08-27T18:20:25.962Z,101301.94
2022-08-27T18:22:53.061Z,101306.25
2022-08-27T18:25:24.576Z,101308.28
2022-08-27T18:27:54.486Z,101311.81
2022-08-27T18:30:21.918Z,101318.13
2022-08-27T18:32:49.053Z,101307.88
2022-08-27T18:35:22.449Z,101310.63
2022-08-27T18:37:49.776Z,101320.53
2022-08-27T18:40:18.667Z,101319.75
2022-08-27T18:42:46.278Z,101324.47
2022-08-27T18:45:27.030Z,101325.66
2022-08-27T18:47:58.157Z,101325.13
2022-08-27T18:50:26.014Z,101337.09
2022-08-27T18:52:55.133Z,101324.88
2022-08-27T18:55:26.027Z,101332.28
2022-08-27T18:57:53.225Z,101328.00
2022-08-27T19:00:21.019Z,101333.13
2022-08-27T19:02:52.390Z,101335.13
2022-08-27T19:05:26.923Z,101331.94
2022-08-27T19:07:55.417Z,101344.97
2022-08-27T19:10:22.265Z,101341.03
2022-08-27T19:12:49.079Z,101350.16
2022-08-27T19:15:16.264Z,101354.88
2022-08-27T19:17:46.213Z,101346.91
2022-08-27T19:20:13.356Z,101357.63
2022-08-27T19:22:40.356Z,101361.47
2022-08-27T19:25:07.599Z,101367.00
2022-08-27T19:27:35.176Z,101362.50
2022-08-27T19:30:02.377Z,101363.38
2022-08-27T19:32:30.519Z,101363.03
2022-08-27T19:34:57.810Z,101368.66
2022-08-27T19:37:27.347Z,101372.28
2022-08-27T19:39:54.321Z,101369.50
2022-08-27T19:42:21.574Z,101375.34
2022-08-27T19:44:48.748Z,101375.72
2022-08-27T19:47:21.363Z,101370.66
2022-08-27T19:49:49.963Z,101370.66
2022-08-27T19:52:16.897Z,101367.81
2022-08-27T19:55:03.292Z,101367.09
2022-08-27T19:57:30.427Z,101368.69
2022-08-27T19:59:57.582Z,101369.47
2022-08-27T20:02:24.882Z,101372.22
2022-08-27T20:05:14.272Z,101377.78
2022-08-27T20:07:38.388Z,101379.75
2022-08-27T20:10:08.314Z,101370.63
2022-08-27T20:12:36.459Z,101367.41
2022-08-27T20:15:06.277Z,101372.94
2022-08-27T20:17:33.586Z,101378.88
2022-08-27T20:20:00.562Z,101372.88
2022-08-27T20:22:28.033Z,101367.34
2022-08-27T20:24:54.874Z,101380.81
2022-08-27T20:27:21.742Z,101376.84
2022-08-27T20:29:49.017Z,101369.34
2022-08-27T20:32:15.916Z,101373.31
2022-08-27T20:34:42.893Z,101381.66
2022-08-27T20:37:09.741Z,101374.91
2022-08-27T20:39:36.533Z,101371.34
2022-08-27T20:42:03.545Z,101380.00
2022-08-27T20:44:31.598Z,101373.22
2022-08-27T20:47:00.329Z,101391.50
2022-08-27T20:49:27.994Z,101382.22
2022-08-27T20:52:03.220Z,101395.91
2022-08-27T20:54:31.613Z,101395.94
2022-08-27T20:56:58.731Z,101401.50
2022-08-27T20:59:44.882Z,101389.34
2022-08-27T21:02:13.949Z,101394.72
2022-08-27T21:04:46.507Z,101391.50
2022-08-27T21:07:14.877Z,101401.38
2022-08-27T21:09:55.843Z,101393.97
2022-08-27T21:12:24.000Z,101390.69
2022-08-27T21:14:54.944Z,101401.00
2022-08-27T21:17:24.457Z,101398.09
2022-08-27T21:19:51.500Z,101407.38
2022-08-27T21:22:18.985Z,101412.53
2022-08-27T21:24:47.465Z,101412.19
2022-08-27T21:27:15.727Z,101409.19
2022-08-27T21:29:44.753Z,101406.56
2022-08-27T21:32:12.167Z,101411.31
2022-08-27T21:34:39.381Z,101410.28
2022-08-27T21:37:06.160Z,101403.03
2022-08-27T21:39:34.424Z,101411.88
2022-08-27T21:42:01.626Z,101418.78
2022-08-27T21:44:29.902Z,101411.06
2022-08-27T21:47:03.919Z,101415.06
2022-08-27T21:49:34.586Z,101404.16
2022-08-27T21:52:08.274Z,101409.06
2022-08-27T21:54:37.960Z,101416.19
2022-08-27T21:57:05.390Z,101414.38
2022-08-27T21:59:33.232Z,101412.72
2022-08-27T22:02:01.178Z,101410.22
2022-08-27T22:04:30.899Z,101418.31
2022-08-27T22:06:59.166Z,101410.84
2022-08-27T22:09:26.623Z,101413.72
2022-08-27T22:11:53.398Z,101416.53
2022-08-27T22:14:20.240Z,101417.81
2022-08-27T22:16:46.988Z,101421.50
2022-08-27T22:19:13.732Z,101419.50
2022-08-27T22:21:40.414Z,101426.78
2022-08-27T22:24:07.514Z,101420.06
2022-08-27T22:26:34.151Z,101429.75
2022-08-27T22:29:03.261Z,101421.25
2022-08-27T22:31:32.578Z,101425.47
2022-08-27T22:34:00.519Z,101421.09
2022-08-27T22:36:27.672Z,101417.50
2022-08-27T22:38:54.723Z,101416.28
2022-08-27T22:41:26.789Z,101416.69
2022-08-27T22:43:56.757Z,101422.66
2022-08-27T22:46:24.835Z,101429.41
2022-08-27T22:48:51.630Z,101423.69
2022-08-27T22:51:18.470Z,101432.78
2022-08-27T22:53:45.914Z,101429.78
2022-08-27T22:56:13.078Z,101432.31
2022-08-27T22:58:40.710Z,101435.72
2022-08-27T23:01:13.752Z,101430.03
2022-08-27T23:03:40.763Z,101432.66
2022-08-27T23:06:07.678Z,101434.84
2022-08-27T23:08:34.449Z,101429.59
2022-08-27T23:11:03.282Z,101434.13
2022-08-27T23:13:31.551Z,101434.25
2022-08-27T23:15:59.530Z,101429.25
2022-08-27T23:18:26.620Z,101425.31
2022-08-27T23:20:53.568Z,101427.41
2022-08-27T23:23:20.421Z,101426.81
2022-08-27T23:26:05.914Z,101422.06
2022-08-27T23:28:32.769Z,101427.31
2022-08-27T23:30:59.951Z,101428.06
2022-08-27T23:33:26.741Z,101427.25
2022-08-27T23:35:53.620Z,101421.75
2022-08-27T23:38:21.849Z,101423.59
2022-08-27T23:40:49.757Z,101431.44
2022-08-27T23:43:18.319Z,101427.97
2022-08-27T23:45:45.169Z,101425.91
2022-08-27T23:48:13.127Z,101433.06
2022-08-27T23:50:41.309Z,101435.38
2022-08-27T23:53:08.299Z,101423.22
2022-08-27T23:55:35.182Z,101437.91
2022-08-27T23:58:02.649Z,101426.94
